createdAt,value
2019-04-27T00:00:28.487Z,8.00
2019-04-27T00:01:26.477Z,6.70
2019-04-27T00:02:26.689Z,6.70
2019-04-27T00:03:26.424Z,6.10
2019-04-27T00:04:26.403Z,7.00
2019-04-27T00:05:32.104Z,9.70
2019-04-27T00:06:27.417Z,6.40
2019-04-27T00:07:26.366Z,6.30
2019-04-27T00:08:28.481Z,6.90
2019-04-27T00:09:27.347Z,6.80
2019-04-27T00:10:28.553Z,8.60
2019-04-27T00:11:26.324Z,9.10
2019-04-27T00:12:26.629Z,7.80
2019-04-27T00:13:26.304Z,6.30
2019-04-27T00:14:26.288Z,10.70
2019-04-27T00:15:31.347Z,7.50
2019-04-27T00:17:47.299Z,12.80
2019-04-27T00:18:45.073Z,10.20
2019-04-27T00:19:40.404Z,9.10
2019-04-27T00:20:40.396Z,12.50
2019-04-27T00:21:40.389Z,11.10
2019-04-27T00:22:40.373Z,9.30
2019-04-27T00:23:40.394Z,11.50
2019-04-27T00:24:40.399Z,11.10
2019-04-27T00:25:40.338Z,13.20
2019-04-27T00:26:40.340Z,9.30
2019-04-27T00:27:40.323Z,9.20
2019-04-27T00:28:40.297Z,15.30
2019-04-27T00:29:40.341Z,9.20
2019-04-27T00:30:40.285Z,10.80
2019-04-27T00:31:40.268Z,8.80
2019-04-27T00:32:40.260Z,10.00
2019-04-27T00:33:40.249Z,9.00
2019-04-27T00:34:40.232Z,7.80
2019-04-27T00:35:40.270Z,8.20
2019-04-27T00:36:40.214Z,7.80
2019-04-27T00:37:40.205Z,7.20
2019-04-27T00:38:40.199Z,7.70
2019-04-27T00:39:40.178Z,7.10
2019-04-27T00:40:40.172Z,6.70
2019-04-27T00:41:40.185Z,9.00
2019-04-27T00:42:40.162Z,8.20
2019-04-27T00:43:40.139Z,7.00
2019-04-27T00:44:40.714Z,7.00
2019-04-27T00:45:40.119Z,9.40
2019-04-27T00:46:40.105Z,6.50
2019-04-27T00:47:57.385Z,7.50
2019-04-27T00:48:41.081Z,8.30
2019-04-27T00:49:40.069Z,7.70
2019-04-27T00:50:40.063Z,7.50
2019-04-27T00:51:40.047Z,8.40
2019-04-27T00:52:40.073Z,9.70
2019-04-27T00:53:40.038Z,10.00
2019-04-27T00:54:40.022Z,7.80
2019-04-27T00:55:40.011Z,8.70
2019-04-27T00:56:40.001Z,7.70
2019-04-27T00:57:39.989Z,8.50
2019-04-27T00:58:39.997Z,8.60
2019-04-27T00:59:39.963Z,10.00
2019-04-27T01:00:39.961Z,8.70
2019-04-27T01:01:39.942Z,8.10
2019-04-27T01:02:39.936Z,11.80
2019-04-27T01:03:39.923Z,9.30
2019-04-27T01:04:39.954Z,8.00
2019-04-27T01:05:39.899Z,9.40
2019-04-27T01:06:39.899Z,7.70
2019-04-27T01:07:39.876Z,10.60
2019-04-27T01:08:39.866Z,8.90
2019-04-27T01:09:39.856Z,7.90
2019-04-27T01:10:39.880Z,9.20
2019-04-27T01:11:39.838Z,7.70
2019-04-27T01:12:39.828Z,8.80
2019-04-27T01:13:39.816Z,8.20
2019-04-27T01:14:39.801Z,7.70
2019-04-27T01:15:39.805Z,9.30
2019-04-27T01:16:39.827Z,9.20
2019-04-27T01:17:39.776Z,8.60
2019-04-27T01:18:51.763Z,8.20
2019-04-27T01:19:39.753Z,8.40
2019-04-27T01:20:39.734Z,8.50
2019-04-27T01:21:39.725Z,8.10
2019-04-27T01:22:39.756Z,8.50
2019-04-27T01:23:39.709Z,8.10
2019-04-27T01:24:39.698Z,8.60
2019-04-27T01:25:39.803Z,10.20
2019-04-27T01:26:39.667Z,11.90
2019-04-27T01:27:39.665Z,9.30
2019-04-27T01:28:39.659Z,8.20
2019-04-27T01:29:41.458Z,8.90
2019-04-27T01:30:39.625Z,8.70
2019-04-27T01:31:39.758Z,9.70
2019-04-27T01:32:39.610Z,10.70
2019-04-27T01:33:39.666Z,9.40
2019-04-27T01:34:39.729Z,8.50
2019-04-27T01:35:39.569Z,10.10
2019-04-27T01:36:39.562Z,11.00
2019-04-27T01:37:39.553Z,7.90
2019-04-27T01:38:40.995Z,8.20
2019-04-27T01:39:39.544Z,8.60
2019-04-27T01:40:39.529Z,7.90
2019-04-27T01:41:39.502Z,8.70
2019-04-27T01:42:39.599Z,9.50
2019-04-27T01:43:39.484Z,12.90
2019-04-27T01:44:39.477Z,10.10
2019-04-27T01:45:39.476Z,9.30
2019-04-27T01:46:39.698Z,9.50
2019-04-27T01:47:39.440Z,10.80
2019-04-27T01:48:39.429Z,11.00
2019-04-27T01:49:52.296Z,10.80
2019-04-27T01:50:39.404Z,9.90
2019-04-27T01:51:39.408Z,12.90
2019-04-27T01:52:39.425Z,10.30
2019-04-27T01:53:39.372Z,10.10
2019-04-27T01:54:41.068Z,11.80
2019-04-27T01:55:40.820Z,12.60
2019-04-27T01:56:39.555Z,10.00
2019-04-27T01:57:39.335Z,12.90
2019-04-27T01:58:39.416Z,10.90
2019-04-27T01:59:39.308Z,10.60
2019-04-27T02:00:39.621Z,10.00
2019-04-27T02:01:39.290Z,9.70
2019-04-27T02:02:39.378Z,11.20
2019-04-27T02:03:39.268Z,10.50
2019-04-27T02:04:39.622Z,11.40
2019-04-27T02:05:39.237Z,13.30
2019-04-27T02:06:39.234Z,11.80
2019-04-27T02:07:39.229Z,10.00
2019-04-27T02:08:40.330Z,10.30
2019-04-27T02:09:39.199Z,9.90
2019-04-27T02:10:39.659Z,10.40
2019-04-27T02:11:39.178Z,10.00
2019-04-27T02:12:39.794Z,10.00
2019-04-27T02:13:39.155Z,9.70
2019-04-27T02:14:39.159Z,9.30
2019-04-27T02:15:39.628Z,9.40
2019-04-27T02:16:39.303Z,9.00
2019-04-27T02:17:39.104Z,8.60
2019-04-27T02:18:40.035Z,9.70
2019-04-27T02:19:39.336Z,8.70
2019-04-27T02:20:51.960Z,10.10
2019-04-27T02:21:39.294Z,7.90
2019-04-27T02:22:39.093Z,8.40
2019-04-27T02:23:39.365Z,7.00
2019-04-27T02:24:39.110Z,8.30
2019-04-27T02:25:39.671Z,8.00
2019-04-27T02:26:39.883Z,8.50
2019-04-27T02:27:38.993Z,8.50
2019-04-27T02:28:39.410Z,7.40
2019-04-27T02:29:39.147Z,7.50
2019-04-27T02:30:40.923Z,7.50
2019-04-27T02:31:40.355Z,8.90
2019-04-27T02:32:39.738Z,7.10
2019-04-27T02:33:40.391Z,7.10
2019-04-27T02:34:39.868Z,6.70
2019-04-27T02:35:39.533Z,7.50
2019-04-27T02:36:39.254Z,8.30
2019-04-27T02:37:40.319Z,11.30
2019-04-27T02:38:40.528Z,8.30
2019-04-27T02:39:39.801Z,6.90
2019-04-27T02:40:39.753Z,7.80
2019-04-27T02:41:39.964Z,7.40
2019-04-27T02:42:39.329Z,7.80
2019-04-27T02:43:39.955Z,7.40
2019-04-27T02:44:40.458Z,7.60
2019-04-27T02:45:40.321Z,9.00
2019-04-27T02:46:39.526Z,6.90
2019-04-27T02:47:40.808Z,9.80
2019-04-27T02:48:52.881Z,7.70
2019-04-27T02:49:40.569Z,7.60
2019-04-27T02:50:39.957Z,8.30
2019-04-27T02:51:51.856Z,8.10
2019-04-27T02:52:40.478Z,9.90
2019-04-27T02:53:39.249Z,7.70
2019-04-27T02:54:39.963Z,7.90
2019-04-27T02:55:39.668Z,7.70
2019-04-27T02:56:40.552Z,8.70
2019-04-27T02:57:39.944Z,8.30
2019-04-27T02:58:40.672Z,7.80
2019-04-27T02:59:39.945Z,8.20
2019-04-27T03:00:39.959Z,8.00
2019-04-27T03:01:43.641Z,9.30
2019-04-27T03:02:40.369Z,8.10
2019-04-27T03:03:40.926Z,8.40
2019-04-27T03:04:39.962Z,8.20
2019-04-27T03:05:39.877Z,7.40
2019-04-27T03:06:39.762Z,9.50
2019-04-27T03:07:39.875Z,8.00
2019-04-27T03:08:39.434Z,8.40
2019-04-27T03:09:39.579Z,7.90
2019-04-27T03:10:40.090Z,8.30
2019-04-27T03:11:39.539Z,9.60
2019-04-27T03:12:41.971Z,8.40
2019-04-27T03:13:40.523Z,8.30
2019-04-27T03:14:40.318Z,8.00
2019-04-27T03:15:40.354Z,8.20
2019-04-27T03:16:39.475Z,7.90
2019-04-27T03:17:39.541Z,9.10
2019-04-27T03:18:40.336Z,7.90
2019-04-27T03:19:39.835Z,8.10
2019-04-27T03:20:40.233Z,9.00
2019-04-27T03:21:39.568Z,8.40
2019-04-27T03:22:50.485Z,8.90
2019-04-27T03:23:38.387Z,8.40
2019-04-27T03:24:39.435Z,8.80
2019-04-27T03:25:40.123Z,9.00
2019-04-27T03:26:38.980Z,8.30
2019-04-27T03:27:40.504Z,9.60
2019-04-27T03:28:40.225Z,8.70
2019-04-27T03:29:38.973Z,8.00
2019-04-27T03:30:42.521Z,9.00
2019-04-27T03:31:46.223Z,9.30
2019-04-27T03:32:43.070Z,9.70
2019-04-27T03:33:42.344Z,9.30
2019-04-27T03:34:41.742Z,9.50
2019-04-27T03:35:42.408Z,9.40
2019-04-27T03:36:39.633Z,9.90
2019-04-27T03:37:40.436Z,9.00
2019-04-27T03:38:39.697Z,9.90
2019-04-27T03:39:39.642Z,9.50
2019-04-27T03:40:40.386Z,9.20
2019-04-27T03:41:38.174Z,9.30
2019-04-27T03:42:40.294Z,9.20
2019-04-27T03:43:40.181Z,9.80
2019-04-27T03:44:39.839Z,9.70
2019-04-27T03:45:39.913Z,10.00
2019-04-27T03:46:39.718Z,10.20
2019-04-27T03:47:40.696Z,8.90
2019-04-27T03:48:40.437Z,9.30
2019-04-27T03:49:41.442Z,9.50
2019-04-27T03:50:39.848Z,9.70
2019-04-27T03:51:40.247Z,9.30
2019-04-27T03:52:39.701Z,9.20
2019-04-27T03:53:50.803Z,9.60
2019-04-27T03:54:40.048Z,9.20
2019-04-27T03:55:39.785Z,8.90
2019-04-27T03:56:39.660Z,9.30
2019-04-27T03:57:40.200Z,8.40
2019-04-27T03:58:39.700Z,9.60
2019-04-27T03:59:40.611Z,9.40
2019-04-27T04:00:39.857Z,9.10
2019-04-27T04:01:39.612Z,9.20
2019-04-27T04:02:40.105Z,8.90
2019-04-27T04:03:39.392Z,9.20
2019-04-27T04:04:40.370Z,8.40
2019-04-27T04:05:39.840Z,8.50
2019-04-27T04:06:40.026Z,8.60
2019-04-27T04:07:39.837Z,8.80
2019-04-27T04:08:39.741Z,8.90
2019-04-27T04:09:39.980Z,10.60
2019-04-27T04:10:39.134Z,7.60
2019-04-27T04:11:39.524Z,6.80
2019-04-27T04:12:40.024Z,7.10
2019-04-27T04:13:39.683Z,7.30
2019-04-27T04:14:44.799Z,6.30
2019-04-27T04:15:39.813Z,8.60
2019-04-27T04:16:39.436Z,7.30
2019-04-27T04:17:40.036Z,6.20
2019-04-27T04:18:39.644Z,6.50
2019-04-27T04:19:48.877Z,6.30
2019-04-27T04:20:40.530Z,5.90
2019-04-27T04:21:39.762Z,5.80
2019-04-27T04:22:40.149Z,5.50
2019-04-27T04:23:40.142Z,5.90
2019-04-27T04:24:39.651Z,5.60
2019-04-27T04:25:40.676Z,6.30
2019-04-27T04:26:40.284Z,6.10
2019-04-27T04:27:40.108Z,6.70
2019-04-27T04:28:39.632Z,5.80
2019-04-27T04:29:39.432Z,5.40
2019-04-27T04:30:40.124Z,5.90
2019-04-27T04:31:40.119Z,5.80
2019-04-27T04:32:39.513Z,5.30
2019-04-27T04:33:37.595Z,6.00
2019-04-27T04:34:39.845Z,5.00
2019-04-27T04:35:39.799Z,5.00
2019-04-27T04:36:39.430Z,5.30
2019-04-27T04:37:39.433Z,5.30
2019-04-27T04:38:40.084Z,5.50
2019-04-27T04:39:40.073Z,5.70
2019-04-27T04:40:39.960Z,7.70
2019-04-27T04:41:40.529Z,5.40
2019-04-27T04:42:39.240Z,5.50
2019-04-27T04:43:39.644Z,5.50
2019-04-27T04:44:39.747Z,6.30
2019-04-27T04:45:50.340Z,8.20
2019-04-27T04:46:39.928Z,5.50
2019-04-27T04:47:37.440Z,5.10
2019-04-27T04:48:37.436Z,5.30
2019-04-27T04:49:39.597Z,5.30
2019-04-27T04:50:39.505Z,5.00
2019-04-27T04:51:37.420Z,5.20
2019-04-27T04:52:39.735Z,5.70
2019-04-27T04:53:37.375Z,6.90
2019-04-27T04:54:37.364Z,4.90
2019-04-27T04:55:39.240Z,5.10
2019-04-27T04:56:39.293Z,4.90
2019-04-27T04:57:37.328Z,5.00
2019-04-27T04:58:39.258Z,5.60
2019-04-27T04:59:38.975Z,5.00
2019-04-27T05:00:37.301Z,5.60
2019-04-27T05:01:37.287Z,4.80
2019-04-27T05:02:39.513Z,5.00
2019-04-27T05:03:38.879Z,5.10
2019-04-27T05:04:39.002Z,4.80
2019-04-27T05:05:37.238Z,4.60
2019-04-27T05:06:38.871Z,4.60
2019-04-27T05:07:38.788Z,4.70
2019-04-27T05:08:37.247Z,4.60
2019-04-27T05:09:37.201Z,5.00
2019-04-27T05:10:39.328Z,4.70
2019-04-27T05:11:37.173Z,6.60
2019-04-27T05:12:38.708Z,5.20
2019-04-27T05:13:37.161Z,5.20
2019-04-27T05:14:38.806Z,4.50
2019-04-27T05:15:37.144Z,5.60
2019-04-27T05:16:49.911Z,5.10
2019-04-27T05:17:37.105Z,5.50
2019-04-27T05:18:37.101Z,4.70
2019-04-27T05:19:38.833Z,5.30
2019-04-27T05:20:37.088Z,4.70
2019-04-27T05:21:38.772Z,5.00
2019-04-27T05:22:37.050Z,4.80
2019-04-27T05:23:38.721Z,5.90
2019-04-27T05:24:37.034Z,4.40
2019-04-27T05:25:38.879Z,4.50
2019-04-27T05:26:37.021Z,4.70
2019-04-27T05:27:36.995Z,4.90
2019-04-27T05:28:38.390Z,4.30
2019-04-27T05:29:36.979Z,4.90
2019-04-27T05:30:38.915Z,4.70
2019-04-27T05:31:38.689Z,4.60
2019-04-27T05:32:36.950Z,4.60
2019-04-27T05:33:38.760Z,4.80
2019-04-27T05:34:36.920Z,4.70
2019-04-27T05:35:40.665Z,5.30
2019-04-27T05:36:41.841Z,5.80
2019-04-27T05:37:38.989Z,4.50
2019-04-27T05:38:41.907Z,4.60
2019-04-27T05:39:38.918Z,5.00
2019-04-27T05:40:36.852Z,4.90
2019-04-27T05:41:37.750Z,4.70
2019-04-27T05:42:36.854Z,6.50
2019-04-27T05:43:36.826Z,5.00
2019-04-27T05:44:40.544Z,4.70
2019-04-27T05:45:39.554Z,5.00
2019-04-27T05:46:36.895Z,4.90
2019-04-27T05:47:51.895Z,5.70
2019-04-27T05:48:36.754Z,4.80
2019-04-27T05:49:41.208Z,7.60
2019-04-27T05:50:43.071Z,4.30
2019-04-27T05:51:40.012Z,5.30
2019-04-27T05:52:36.720Z,4.80
2019-04-27T05:53:36.716Z,4.70
2019-04-27T05:54:38.222Z,4.70
2019-04-27T05:55:36.675Z,4.80
2019-04-27T05:56:36.669Z,5.70
2019-04-27T05:57:36.654Z,4.30
2019-04-27T05:58:36.684Z,4.60
2019-04-27T05:59:36.633Z,4.30
2019-04-27T06:00:36.629Z,4.30
2019-04-27T06:01:38.735Z,5.20
2019-04-27T06:02:36.710Z,4.80
2019-04-27T06:03:36.596Z,4.50
2019-04-27T06:04:36.610Z,5.70
2019-04-27T06:05:36.575Z,5.10
2019-04-27T06:06:36.551Z,4.30
2019-04-27T06:07:36.537Z,4.50
2019-04-27T06:08:39.316Z,5.10
2019-04-27T06:09:36.518Z,4.40
2019-04-27T06:10:36.523Z,4.70
2019-04-27T06:11:36.511Z,4.50
2019-04-27T06:12:36.489Z,4.40
2019-04-27T06:13:36.484Z,4.50
2019-04-27T06:14:36.474Z,4.40
2019-04-27T06:15:36.538Z,4.50
2019-04-27T06:16:36.450Z,4.20
2019-04-27T06:17:36.425Z,4.50
2019-04-27T06:18:49.744Z,4.40
2019-04-27T06:19:36.406Z,4.50
2019-04-27T06:20:48.307Z,5.20
2019-04-27T06:21:37.424Z,4.70
2019-04-27T06:22:36.381Z,4.50
2019-04-27T06:23:36.374Z,4.60
2019-04-27T06:24:36.354Z,4.40
2019-04-27T06:25:36.339Z,5.10
2019-04-27T06:26:36.350Z,4.50
2019-04-27T06:27:36.359Z,4.20
2019-04-27T06:28:36.308Z,4.30
2019-04-27T06:29:36.298Z,4.30
2019-04-27T06:30:36.282Z,4.30
2019-04-27T06:31:36.274Z,4.70
2019-04-27T06:32:36.259Z,4.50
2019-04-27T06:33:36.334Z,4.60
2019-04-27T06:34:36.235Z,4.20
2019-04-27T06:35:36.231Z,4.70
2019-04-27T06:36:36.219Z,5.50
2019-04-27T06:37:36.201Z,4.50
2019-04-27T06:38:36.199Z,4.50
2019-04-27T06:39:36.224Z,4.60
2019-04-27T06:40:36.171Z,4.60
2019-04-27T06:41:36.169Z,4.40
2019-04-27T06:42:36.152Z,4.20
2019-04-27T06:43:36.142Z,4.90
2019-04-27T06:44:36.123Z,4.60
2019-04-27T06:45:36.132Z,5.50
2019-04-27T06:46:36.108Z,4.50
2019-04-27T06:47:39.037Z,4.60
2019-04-27T06:48:36.080Z,4.10
2019-04-27T06:49:49.568Z,4.40
2019-04-27T06:50:36.057Z,4.60
2019-04-27T06:51:36.055Z,4.50
2019-04-27T06:52:36.037Z,4.90
2019-04-27T06:53:36.030Z,4.30
2019-04-27T06:54:36.024Z,4.50
2019-04-27T06:55:36.048Z,4.70
2019-04-27T06:56:35.991Z,4.40
2019-04-27T06:57:35.977Z,4.50
2019-04-27T06:58:35.971Z,4.30
2019-04-27T06:59:35.961Z,4.40
2019-04-27T07:00:35.949Z,4.30
2019-04-27T07:01:35.977Z,9.70
2019-04-27T07:02:35.928Z,4.50
2019-04-27T07:03:35.912Z,4.50
2019-04-27T07:04:35.903Z,4.60
2019-04-27T07:05:35.892Z,6.10
2019-04-27T07:06:35.878Z,4.30
2019-04-27T07:07:35.897Z,4.10
2019-04-27T07:08:35.860Z,5.50
2019-04-27T07:09:35.841Z,4.50
2019-04-27T07:10:35.834Z,5.20
2019-04-27T07:11:35.824Z,6.30
2019-04-27T07:12:35.817Z,6.20
2019-04-27T07:13:35.839Z,4.50
2019-04-27T07:14:35.794Z,4.40
2019-04-27T07:15:35.775Z,4.40
2019-04-27T07:16:35.771Z,4.50
2019-04-27T07:17:35.760Z,4.30
2019-04-27T07:18:35.750Z,4.60
2019-04-27T07:19:35.741Z,4.50
2019-04-27T07:20:49.333Z,5.40
2019-04-27T07:21:35.707Z,4.60
2019-04-27T07:22:35.700Z,4.30
2019-04-27T07:23:35.687Z,4.30
2019-04-27T07:24:35.820Z,5.00
2019-04-27T07:25:35.664Z,4.40
2019-04-27T07:26:35.651Z,5.10
2019-04-27T07:27:35.649Z,4.30
2019-04-27T07:28:35.646Z,4.60
2019-04-27T07:29:35.629Z,5.90
2019-04-27T07:30:35.645Z,4.30
2019-04-27T07:31:35.609Z,4.50
2019-04-27T07:32:35.588Z,4.70
2019-04-27T07:33:35.575Z,4.30
2019-04-27T07:34:35.567Z,4.70
2019-04-27T07:35:35.562Z,4.70
2019-04-27T07:36:35.594Z,4.40
2019-04-27T07:37:35.540Z,5.10
2019-04-27T07:38:35.526Z,4.70
2019-04-27T07:39:35.510Z,4.20
2019-04-27T07:40:35.501Z,4.20
2019-04-27T07:41:35.485Z,4.90
2019-04-27T07:42:35.495Z,4.10
2019-04-27T07:43:35.464Z,4.20
2019-04-27T07:44:35.458Z,4.30
2019-04-27T07:45:35.440Z,4.90
2019-04-27T07:46:35.435Z,4.40
2019-04-27T07:47:35.646Z,4.20
2019-04-27T07:48:35.421Z,4.50
2019-04-27T07:49:35.404Z,4.40
2019-04-27T07:50:35.389Z,5.50
2019-04-27T07:51:49.010Z,5.40
2019-04-27T07:52:37.890Z,6.20
2019-04-27T07:53:35.410Z,4.30
2019-04-27T07:54:35.348Z,5.40
2019-04-27T07:55:35.344Z,4.00
2019-04-27T07:56:35.319Z,4.30
2019-04-27T07:57:35.306Z,4.50
2019-04-27T07:58:35.305Z,4.40
2019-04-27T07:59:35.331Z,5.10
2019-04-27T08:00:35.282Z,5.10
2019-04-27T08:01:35.261Z,4.60
2019-04-27T08:02:35.255Z,4.50
2019-04-27T08:03:35.297Z,4.00
2019-04-27T08:04:35.231Z,4.60
2019-04-27T08:05:35.242Z,4.00
2019-04-27T08:06:35.208Z,4.30
2019-04-27T08:07:35.197Z,6.00
2019-04-27T08:08:35.222Z,4.10
2019-04-27T08:09:35.183Z,4.50
2019-04-27T08:10:35.180Z,4.60
2019-04-27T08:11:35.169Z,4.80
2019-04-27T08:12:35.159Z,4.70
2019-04-27T08:13:35.137Z,4.40
2019-04-27T08:14:35.131Z,4.20
2019-04-27T08:15:35.116Z,4.50
2019-04-27T08:16:35.100Z,4.30
2019-04-27T08:17:35.096Z,4.30
2019-04-27T08:18:35.072Z,4.80
2019-04-27T08:19:35.068Z,4.40
2019-04-27T08:20:35.062Z,5.00
2019-04-27T08:21:43.334Z,3.90
2019-04-27T08:23:49.328Z,4.40
2019-04-27T08:24:49.801Z,4.80
2019-04-27T08:25:49.267Z,5.10
2019-04-27T08:26:49.946Z,4.20
2019-04-27T08:27:49.416Z,6.60
2019-04-27T08:28:49.255Z,4.60
2019-04-27T08:29:49.277Z,4.60
2019-04-27T08:30:49.211Z,3.90
2019-04-27T08:31:49.204Z,4.40
2019-04-27T08:32:49.721Z,4.70
2019-04-27T08:33:49.180Z,4.40
2019-04-27T08:34:49.619Z,4.30
2019-04-27T08:35:49.211Z,4.30
2019-04-27T08:36:49.913Z,4.60
2019-04-27T08:37:49.641Z,4.20
2019-04-27T08:38:49.131Z,4.00
2019-04-27T08:39:51.042Z,4.60
2019-04-27T08:40:49.500Z,4.20
2019-04-27T08:41:49.541Z,4.30
2019-04-27T08:42:51.172Z,4.40
2019-04-27T08:43:49.070Z,4.70
2019-04-27T08:44:49.715Z,4.30
2019-04-27T08:45:49.053Z,5.00
2019-04-27T08:46:49.563Z,5.00
2019-04-27T08:47:49.839Z,4.00
2019-04-27T08:48:49.154Z,4.40
2019-04-27T08:49:49.281Z,5.60
2019-04-27T08:50:49.008Z,4.10
2019-04-27T08:51:57.287Z,4.20
2019-04-27T08:52:50.377Z,4.20
2019-04-27T08:53:59.225Z,5.20
2019-04-27T08:54:49.139Z,4.60
2019-04-27T08:55:49.634Z,4.50
2019-04-27T08:56:49.425Z,4.60
2019-04-27T08:57:49.186Z,5.40
2019-04-27T08:58:49.708Z,4.50
2019-04-27T08:59:50.902Z,4.00
2019-04-27T09:00:49.167Z,5.00
2019-04-27T09:01:49.328Z,4.20
2019-04-27T09:02:50.288Z,5.90
2019-04-27T09:03:49.519Z,5.40
2019-04-27T09:04:49.568Z,4.20
2019-04-27T09:05:49.090Z,4.00
2019-04-27T09:06:49.355Z,4.40
2019-04-27T09:07:49.636Z,5.00
2019-04-27T09:08:49.507Z,4.40
2019-04-27T09:09:49.797Z,4.40
2019-04-27T09:10:48.980Z,4.50
2019-04-27T09:11:49.411Z,4.40
2019-04-27T09:12:50.123Z,4.10
2019-04-27T09:13:48.862Z,5.60
2019-04-27T09:14:49.483Z,4.10
2019-04-27T09:15:49.422Z,6.20
2019-04-27T09:16:59.508Z,4.00
2019-04-27T09:17:49.689Z,3.90
2019-04-27T09:18:49.856Z,4.10
2019-04-27T09:19:49.186Z,4.20
2019-04-27T09:20:49.149Z,4.60
2019-04-27T09:21:48.666Z,4.60
2019-04-27T09:22:49.283Z,4.80
2019-04-27T09:23:48.957Z,5.00
2019-04-27T09:25:00.566Z,4.20
2019-04-27T09:25:49.618Z,4.40
2019-04-27T09:26:49.190Z,4.60
2019-04-27T09:27:49.273Z,6.50
2019-04-27T09:28:49.260Z,4.50
2019-04-27T09:29:49.975Z,4.80
2019-04-27T09:30:49.774Z,5.40
2019-04-27T09:31:49.041Z,4.70
2019-04-27T09:32:48.524Z,4.80
2019-04-27T09:33:48.533Z,4.90
2019-04-27T09:34:48.492Z,4.10
2019-04-27T09:35:48.525Z,5.50
2019-04-27T09:36:48.586Z,5.00
2019-04-27T09:37:48.459Z,4.80
2019-04-27T09:38:48.447Z,4.50
2019-04-27T09:39:48.440Z,4.30
2019-04-27T09:40:48.438Z,4.40
2019-04-27T09:41:48.476Z,3.80
2019-04-27T09:42:48.412Z,5.20
2019-04-27T09:43:48.393Z,4.80
2019-04-27T09:44:48.403Z,5.00
2019-04-27T09:45:48.373Z,7.10
2019-04-27T09:46:48.360Z,5.10
2019-04-27T09:47:48.366Z,4.90
2019-04-27T09:48:48.333Z,4.60
2019-04-27T09:49:48.324Z,4.80
2019-04-27T09:50:48.320Z,4.70
2019-04-27T09:51:48.305Z,5.60
2019-04-27T09:52:48.292Z,4.90
2019-04-27T09:53:48.337Z,4.90
2019-04-27T09:54:48.320Z,5.00
2019-04-27T09:56:00.980Z,4.10
2019-04-27T09:56:48.249Z,4.50
2019-04-27T09:57:48.231Z,4.40
2019-04-27T09:58:48.225Z,4.60
2019-04-27T09:59:48.622Z,4.60
2019-04-27T10:00:48.219Z,6.70
2019-04-27T10:01:48.189Z,5.40
2019-04-27T10:02:48.180Z,4.60
2019-04-27T10:03:48.164Z,6.00
2019-04-27T10:04:48.156Z,4.70
2019-04-27T10:05:48.246Z,5.00
2019-04-27T10:06:48.770Z,4.50
2019-04-27T10:07:48.123Z,4.90
2019-04-27T10:08:48.109Z,4.60
2019-04-27T10:09:48.107Z,4.40
2019-04-27T10:10:48.157Z,4.70
2019-04-27T10:11:48.119Z,4.50
2019-04-27T10:12:48.072Z,4.80
2019-04-27T10:13:48.056Z,5.20
2019-04-27T10:14:48.049Z,4.40
2019-04-27T10:15:48.029Z,4.90
2019-04-27T10:16:48.025Z,4.60
2019-04-27T10:17:48.051Z,4.90
2019-04-27T10:18:48.005Z,4.70
2019-04-27T10:19:47.985Z,6.00
2019-04-27T10:20:59.118Z,5.00
2019-04-27T10:21:48.965Z,6.30
2019-04-27T10:22:47.986Z,5.10
2019-04-27T10:23:47.988Z,5.40
2019-04-27T10:24:47.928Z,4.50
2019-04-27T10:25:47.916Z,4.60
2019-04-27T10:27:00.694Z,4.80
2019-04-27T10:27:47.896Z,4.80
2019-04-27T10:28:47.886Z,5.10
2019-04-27T10:29:47.884Z,4.80
2019-04-27T10:30:47.859Z,4.30
2019-04-27T10:31:48.280Z,4.30
2019-04-27T10:32:47.845Z,5.00
2019-04-27T10:33:47.838Z,5.00
2019-04-27T10:34:47.841Z,4.80
2019-04-27T10:35:47.808Z,5.00
2019-04-27T10:36:47.795Z,5.20
2019-04-27T10:37:47.787Z,4.60
2019-04-27T10:38:47.777Z,4.50
2019-04-27T10:39:47.773Z,4.80
2019-04-27T10:40:47.798Z,5.20
2019-04-27T10:41:47.751Z,4.60
2019-04-27T10:42:47.732Z,5.20
2019-04-27T10:43:47.723Z,5.30
2019-04-27T10:44:47.709Z,4.60
2019-04-27T10:45:47.697Z,4.90
2019-04-27T10:46:47.707Z,5.10
2019-04-27T10:47:49.468Z,5.30
2019-04-27T10:48:47.671Z,4.50
2019-04-27T10:49:48.452Z,4.40
2019-04-27T10:50:47.641Z,6.80
2019-04-27T10:51:47.652Z,4.90
2019-04-27T10:52:53.814Z,5.60
2019-04-27T10:53:48.609Z,5.00
2019-04-27T10:54:47.629Z,5.50
2019-04-27T10:55:47.587Z,5.50
2019-04-27T10:56:47.576Z,5.00
2019-04-27T10:57:59.683Z,4.80
2019-04-27T10:58:47.557Z,5.40
2019-04-27T10:59:47.538Z,5.00
2019-04-27T11:00:47.531Z,4.70
2019-04-27T11:01:47.519Z,4.50
2019-04-27T11:02:47.523Z,4.50
2019-04-27T11:03:47.511Z,5.30
2019-04-27T11:04:47.488Z,4.80
2019-04-27T11:05:47.474Z,4.90
2019-04-27T11:06:47.476Z,5.50
2019-04-27T11:07:47.449Z,5.10
2019-04-27T11:08:48.340Z,5.00
2019-04-27T11:09:47.431Z,5.10
2019-04-27T11:10:47.421Z,5.00
2019-04-27T11:11:47.414Z,4.50
2019-04-27T11:12:47.402Z,4.70
2019-04-27T11:13:47.425Z,5.10
2019-04-27T11:14:47.376Z,4.40
2019-04-27T11:15:47.361Z,5.50
2019-04-27T11:16:47.354Z,4.90
2019-04-27T11:17:47.572Z,4.40
2019-04-27T11:18:47.331Z,5.00
2019-04-27T11:19:47.342Z,7.70
2019-04-27T11:20:47.311Z,4.90
2019-04-27T11:21:47.300Z,5.10
2019-04-27T11:22:47.287Z,5.40
2019-04-27T11:23:47.283Z,5.10
2019-04-27T11:24:47.935Z,5.10
2019-04-27T11:25:47.287Z,5.50
2019-04-27T11:26:47.242Z,5.20
2019-04-27T11:27:47.238Z,5.00
2019-04-27T11:28:59.795Z,4.60
2019-04-27T11:29:47.204Z,5.10
2019-04-27T11:30:47.200Z,4.80
2019-04-27T11:31:47.225Z,5.00
2019-04-27T11:32:47.182Z,5.60
2019-04-27T11:33:47.177Z,5.90
2019-04-27T11:34:47.168Z,5.10
2019-04-27T11:35:47.168Z,5.70
2019-04-27T11:36:47.128Z,5.90
2019-04-27T11:37:47.156Z,5.20
2019-04-27T11:38:47.108Z,6.30
2019-04-27T11:39:47.099Z,5.00
2019-04-27T11:40:47.098Z,5.70
2019-04-27T11:41:47.079Z,5.10
2019-04-27T11:42:47.062Z,5.50
2019-04-27T11:43:47.071Z,6.00
2019-04-27T11:44:47.147Z,5.80
2019-04-27T11:45:47.037Z,6.00
2019-04-27T11:46:47.517Z,5.90
2019-04-27T11:47:47.027Z,6.40
2019-04-27T11:48:46.995Z,8.90
2019-04-27T11:49:46.993Z,5.70
2019-04-27T11:50:46.996Z,5.20
2019-04-27T11:51:46.982Z,5.80
2019-04-27T11:52:46.965Z,5.80
2019-04-27T11:53:46.993Z,6.10
2019-04-27T11:54:46.979Z,5.70
2019-04-27T11:55:46.928Z,7.00
2019-04-27T11:56:47.278Z,5.70
2019-04-27T11:57:47.136Z,5.50
2019-04-27T11:58:48.747Z,5.50
2019-04-27T12:00:00.262Z,5.30
2019-04-27T12:00:46.865Z,5.90
2019-04-27T12:01:46.859Z,7.10
2019-04-27T12:02:46.846Z,5.80
2019-04-27T12:03:46.833Z,6.00
2019-04-27T12:04:46.830Z,5.80
2019-04-27T12:05:46.879Z,6.10
2019-04-27T12:06:46.806Z,5.70
2019-04-27T12:07:47.890Z,6.10
2019-04-27T12:08:46.780Z,6.60
2019-04-27T12:09:48.097Z,6.40
2019-04-27T12:10:48.323Z,6.30
2019-04-27T12:11:46.785Z,6.90
2019-04-27T12:12:46.738Z,6.70
2019-04-27T12:13:46.719Z,6.20
2019-04-27T12:14:47.501Z,5.70
2019-04-27T12:15:46.699Z,7.10
2019-04-27T12:16:46.684Z,6.60
2019-04-27T12:17:46.705Z,6.50
2019-04-27T12:18:48.809Z,6.80
2019-04-27T12:19:46.657Z,6.00
2019-04-27T12:20:46.651Z,5.90
2019-04-27T12:21:46.637Z,5.90
2019-04-27T12:22:46.651Z,6.80
2019-04-27T12:23:47.191Z,6.50
2019-04-27T12:24:46.618Z,5.90
2019-04-27T12:25:46.597Z,7.70
2019-04-27T12:26:46.581Z,6.40
2019-04-27T12:27:46.562Z,7.00
2019-04-27T12:28:46.557Z,6.40
2019-04-27T12:29:47.311Z,7.20
2019-04-27T12:30:59.441Z,6.40
2019-04-27T12:31:49.041Z,6.90
2019-04-27T12:32:46.507Z,6.80
2019-04-27T12:33:46.495Z,5.80
2019-04-27T12:34:46.585Z,5.80
2019-04-27T12:35:48.258Z,5.70
2019-04-27T12:36:46.479Z,6.00
2019-04-27T12:37:46.455Z,6.60
2019-04-27T12:38:46.749Z,6.40
2019-04-27T12:39:46.426Z,7.00
2019-04-27T12:40:46.622Z,6.60
2019-04-27T12:41:46.407Z,6.50
2019-04-27T12:42:46.402Z,6.60
2019-04-27T12:43:46.391Z,7.80
2019-04-27T12:44:46.378Z,6.20
2019-04-27T12:45:46.364Z,6.60
2019-04-27T12:46:46.376Z,7.20
2019-04-27T12:47:46.482Z,8.20
2019-04-27T12:48:46.337Z,7.10
2019-04-27T12:49:46.332Z,6.80
2019-04-27T12:50:46.385Z,6.50
2019-04-27T12:51:46.337Z,6.10
2019-04-27T12:52:46.285Z,6.70
2019-04-27T12:53:50.767Z,6.20
2019-04-27T12:54:47.282Z,6.20
2019-04-27T12:55:46.548Z,7.40
2019-04-27T12:56:46.246Z,6.40
2019-04-27T12:57:46.275Z,6.70
2019-04-27T12:58:47.567Z,7.50
2019-04-27T12:59:46.682Z,7.90
2019-04-27T13:00:46.250Z,8.00
2019-04-27T13:01:58.610Z,7.40
2019-04-27T13:02:46.173Z,7.90
2019-04-27T13:03:46.383Z,7.60
2019-04-27T13:04:46.656Z,8.30
2019-04-27T13:05:46.140Z,7.90
2019-04-27T13:06:47.034Z,9.70
2019-04-27T13:07:46.123Z,8.00
2019-04-27T13:08:46.130Z,7.60
2019-04-27T13:09:46.214Z,9.20
2019-04-27T13:10:46.093Z,11.00
2019-04-27T13:11:46.071Z,9.50
2019-04-27T13:12:46.188Z,8.30
2019-04-27T13:13:46.057Z,7.60
2019-04-27T13:14:46.085Z,7.60
2019-04-27T13:15:46.034Z,8.30
2019-04-27T13:16:47.459Z,8.50
2019-04-27T13:17:46.004Z,8.20
2019-04-27T13:18:46.006Z,8.70